Terminal Aerodrome Forecast
Issued by NWS

Home | Current Version | Previous Version | Text Only | Print | Product List | Glossary On
Versions: 1 2 3 4 5 6 7 8 9 10 11 12 13 14 15 16 17 18 19 20 21 22 23 24 25 26 27
000
FTAK31 PAJN 210527
TAFAYA
TAF
PAYA 210527Z 2106/2206 07010KT 3SM RA BR SCT007 OVC025
      WS020/10030KT
     FM210900 10010KT 5SM -RA SCT007 OVC025 WS020/13030KT
     FM211200 10010KT 6SM -RA SCT012 OVC025 WS020/14025KT
     FM212000 11007KT 6SM -RA SCT015 OVC030
      AMD LTD TO CLD VIS AND WIND=

USA.gov is the U.S. government's official web portal to all federal, state and local government web resources and services.